aviador You're here:

ZBYN Decoded Metar

TAIYUAN in CHINA
Report Time2017-12-15 23:30:00
UTC Time2017-12-15 23:42:21
Flight Rules vfr VFR
Wind290° at 12 kt
W.Decomp.*RWY 31: 11.5 kt HW 3.3 kt LCW
W.Rank290° ranks 24
Current wind is above 290° avg. (7.8)
Visibility9999 m
Phenomena:N/A
Clouds:N/A
Expected CloudBase > 5,200 ft AGL from Temp-Dew spread
CeilingNone
Temp-9°C (ISA -19)
Dew Point-22°C (34% RH)
AAT-17.0°C
QNH1037 hPa
Density Alt-581 ft
Elevation2,556 ft
Report Wrong Elevation
Raw Report
ZBYN 152330Z 29006MPS CAVOK M09/M22 Q1037 NOSIG=

Extra information for ZBYN:More info

Metar Taf Metar & Taf Last 4 Metars F.Rules Stats Wind Profile Meteogram Temp Stats Airport Information Weather charts Add Link Nearby VenuesMetar ALERT Operation Metar Decoded Social comments